createdAt,value
2019-02-25T00:00:24.485Z,103100.67
2019-02-25T00:02:52.825Z,103100.78
2019-02-25T00:05:21.426Z,103100.84
2019-02-25T00:07:49.769Z,103103.94
2019-02-25T00:10:18.069Z,103104.37
2019-02-25T00:12:46.377Z,103104.23
2019-02-25T00:15:14.745Z,103098.13
2019-02-25T00:17:43.137Z,103098.63
2019-02-25T00:20:12.666Z,103098.23
2019-02-25T00:22:40.941Z,103095.23
2019-02-25T00:25:11.180Z,103091.75
2019-02-25T00:27:39.557Z,103090.80
2019-02-25T00:30:11.344Z,103086.98
2019-02-25T00:32:39.658Z,103081.09
2019-02-25T00:35:07.964Z,103071.77
2019-02-25T00:37:36.553Z,103071.05
2019-02-25T00:40:07.103Z,103065.55
2019-02-25T00:42:35.421Z,103066.95
2019-02-25T00:45:05.486Z,103075.16
2019-02-25T00:47:34.094Z,103072.45
2019-02-25T00:50:02.795Z,103069.81
2019-02-25T00:52:31.078Z,103067.63
2019-02-25T00:54:59.391Z,103065.09
2019-02-25T00:57:27.955Z,103055.05
2019-02-25T00:59:56.276Z,103057.33
2019-02-25T01:02:24.580Z,103060.52
2019-02-25T01:04:53.766Z,103067.20
2019-02-25T01:07:22.363Z,103058.57
2019-02-25T01:09:50.662Z,103052.15
2019-02-25T01:12:18.958Z,103050.65
2019-02-25T01:14:47.269Z,103048.23
2019-02-25T01:17:15.966Z,103041.78
2019-02-25T01:19:44.265Z,103051.30
2019-02-25T01:22:12.609Z,103041.39
2019-02-25T01:24:41.206Z,103040.48
2019-02-25T01:27:10.067Z,103040.88
2019-02-25T01:29:38.420Z,103039.27
2019-02-25T01:32:07.055Z,103030.18
2019-02-25T01:34:35.640Z,103034.09
2019-02-25T01:37:04.028Z,103035.81
2019-02-25T01:39:32.316Z,103033.67
2019-02-25T01:42:00.871Z,103042.37
2019-02-25T01:44:29.156Z,103038.36
2019-02-25T01:46:57.481Z,103041.81
2019-02-25T01:49:25.812Z,103038.98
2019-02-25T01:51:54.118Z,103046.14
2019-02-25T01:54:22.418Z,103046.08
2019-02-25T01:56:50.705Z,103039.63
2019-02-25T01:59:19.013Z,103045.94
2019-02-25T02:01:47.317Z,103047.78
2019-02-25T02:04:15.702Z,103052.18
2019-02-25T02:06:44.262Z,103052.18
2019-02-25T02:09:12.963Z,103054.48
2019-02-25T02:11:41.264Z,103054.22
2019-02-25T02:14:09.591Z,103042.94
2019-02-25T02:16:37.890Z,103037.67
2019-02-25T02:19:06.211Z,103039.03
2019-02-25T02:21:34.559Z,103044.34
2019-02-25T02:24:02.874Z,103038.83
2019-02-25T02:26:31.202Z,103042.77
2019-02-25T02:28:59.787Z,103030.64
2019-02-25T02:31:28.111Z,103027.68
2019-02-25T02:33:56.424Z,103027.38
2019-02-25T02:36:24.739Z,103022.65
2019-02-25T02:38:53.107Z,103013.96
2019-02-25T02:41:21.392Z,103012.59
2019-02-25T02:43:49.715Z,103019.63
2019-02-25T02:46:23.891Z,103023.65
2019-02-25T02:48:55.452Z,103025.70
2019-02-25T02:51:23.737Z,103035.92
2019-02-25T02:53:52.050Z,103038.31
2019-02-25T02:56:20.656Z,103041.73
2019-02-25T02:58:48.988Z,103034.38
2019-02-25T03:01:17.602Z,103032.67
2019-02-25T03:03:45.928Z,103034.19
2019-02-25T03:06:14.223Z,103031.46
2019-02-25T03:08:42.513Z,103029.09
2019-02-25T03:11:11.128Z,103026.13
2019-02-25T03:13:39.443Z,103021.98
2019-02-25T03:16:07.743Z,103019.09
2019-02-25T03:18:36.094Z,103018.27
2019-02-25T03:21:04.394Z,103012.36
2019-02-25T03:23:33.010Z,103011.43
2019-02-25T03:26:01.312Z,103013.16
2019-02-25T03:28:29.595Z,103009.39
2019-02-25T03:30:57.899Z,103021.25
2019-02-25T03:33:26.209Z,103026.45
2019-02-25T03:35:54.525Z,103032.91
2019-02-25T03:38:22.840Z,103027.25
2019-02-25T03:40:51.136Z,103033.30
2019-02-25T03:43:19.421Z,103030.81
2019-02-25T03:45:47.751Z,103026.09
2019-02-25T03:48:16.037Z,103027.77
2019-02-25T03:50:44.334Z,103031.69
2019-02-25T03:53:12.680Z,103037.06
2019-02-25T03:55:40.944Z,103036.73
2019-02-25T03:58:09.256Z,103040.13
2019-02-25T04:00:37.541Z,103043.57
2019-02-25T04:03:05.890Z,103038.80
2019-02-25T04:05:34.186Z,103039.27
2019-02-25T04:08:02.913Z,103039.95
2019-02-25T04:10:31.195Z,103027.55
2019-02-25T04:12:59.507Z,103035.44
2019-02-25T04:15:29.796Z,103039.34
2019-02-25T04:17:58.104Z,103037.67
2019-02-25T04:20:26.436Z,103027.72
2019-02-25T04:22:54.727Z,103023.84
2019-02-25T04:25:23.138Z,103026.87
2019-02-25T04:27:51.808Z,103039.03
2019-02-25T04:30:20.086Z,103041.28
2019-02-25T04:32:48.401Z,103032.63
2019-02-25T04:35:16.721Z,103033.48
2019-02-25T04:37:45.019Z,103031.84
2019-02-25T04:40:14.024Z,103031.17
2019-02-25T04:42:42.286Z,103038.34
2019-02-25T04:45:13.134Z,103044.41
2019-02-25T04:47:41.427Z,103041.73
2019-02-25T04:50:11.084Z,103033.32
2019-02-25T04:52:39.390Z,103030.33
2019-02-25T04:55:10.408Z,103026.58
2019-02-25T04:57:38.880Z,103026.80
2019-02-25T05:00:12.832Z,103025.17
2019-02-25T05:02:41.132Z,103032.65
2019-02-25T05:05:09.788Z,103030.91
2019-02-25T05:07:38.432Z,103026.09
2019-02-25T05:10:10.677Z,103028.22
2019-02-25T05:12:40.707Z,103020.84
2019-02-25T05:15:11.223Z,103028.77
2019-02-25T05:17:39.828Z,103026.83
2019-02-25T05:20:08.799Z,103026.47
2019-02-25T05:22:37.646Z,103026.47
2019-02-25T05:25:08.551Z,103025.09
2019-02-25T05:27:36.860Z,103027.70
2019-02-25T05:30:08.864Z,103029.00
2019-02-25T05:32:37.267Z,103028.66
2019-02-25T05:35:07.941Z,103030.13
2019-02-25T05:37:36.301Z,103028.75
2019-02-25T05:40:07.263Z,103029.84
2019-02-25T05:42:35.574Z,103033.58
2019-02-25T05:45:04.550Z,103029.15
2019-02-25T05:47:32.843Z,103031.75
2019-02-25T05:50:01.148Z,103025.64
2019-02-25T05:52:29.449Z,103034.88
2019-02-25T05:54:57.759Z,103037.70
2019-02-25T05:57:26.052Z,103038.38
2019-02-25T05:59:54.398Z,103044.94
2019-02-25T06:02:22.768Z,103049.69
2019-02-25T06:04:51.097Z,103044.94
2019-02-25T06:07:19.419Z,103047.09
2019-02-25T06:09:47.743Z,103051.11
2019-02-25T06:12:16.074Z,103049.44
2019-02-25T06:14:44.383Z,103048.52
2019-02-25T06:17:13.008Z,103045.47
2019-02-25T06:19:41.345Z,103052.86
2019-02-25T06:22:09.643Z,103044.22
2019-02-25T06:24:37.945Z,103042.87
2019-02-25T06:27:06.269Z,103046.16
2019-02-25T06:29:34.565Z,103055.58
2019-02-25T06:32:03.173Z,103049.02
2019-02-25T06:34:32.066Z,103047.33
2019-02-25T06:37:00.636Z,103046.02
2019-02-25T06:39:28.941Z,103049.02
2019-02-25T06:41:57.604Z,103048.55
2019-02-25T06:44:25.908Z,103042.84
2019-02-25T06:46:54.319Z,103044.66
2019-02-25T06:49:22.639Z,103043.03
2019-02-25T06:51:50.937Z,103048.62
2019-02-25T06:54:19.245Z,103047.20
2019-02-25T06:56:47.572Z,103048.85
2019-02-25T06:59:18.218Z,103044.35
2019-02-25T07:01:46.182Z,103053.19
2019-02-25T07:04:25.307Z,103065.20
2019-02-25T07:06:55.274Z,103068.62
2019-02-25T07:09:25.651Z,103067.66
2019-02-25T07:12:12.197Z,103073.19
2019-02-25T07:14:42.147Z,103072.23
2019-02-25T07:17:12.090Z,103058.72
2019-02-25T07:19:42.036Z,103065.97
2019-02-25T07:22:12.017Z,103065.30
2019-02-25T07:24:41.965Z,103063.31
2019-02-25T07:27:28.240Z,103070.05
2019-02-25T07:30:14.390Z,103073.70
2019-02-25T07:32:56.379Z,103071.19
2019-02-25T07:35:29.275Z,103078.30
2019-02-25T07:37:59.250Z,103079.25
2019-02-25T07:40:35.081Z,103079.86
2019-02-25T07:43:11.442Z,103081.72
2019-02-25T07:45:46.848Z,103085.00
2019-02-25T07:48:31.593Z,103076.54
2019-02-25T07:51:19.808Z,103081.81
2019-02-25T07:54:02.107Z,103086.68
2019-02-25T07:56:43.957Z,103088.45
2019-02-25T07:59:19.430Z,103088.07
2019-02-25T08:01:52.056Z,103097.30
2019-02-25T08:04:24.686Z,103097.39
2019-02-25T08:07:06.481Z,103096.77
2019-02-25T08:09:36.429Z,103087.44
2019-02-25T08:12:06.743Z,103092.39
2019-02-25T08:14:52.874Z,103095.64
2019-02-25T08:17:25.993Z,103102.91
2019-02-25T08:20:12.399Z,103108.39
2019-02-25T08:22:44.775Z,103109.84
2019-02-25T08:25:32.783Z,103119.16
2019-02-25T08:28:18.946Z,103122.97
2019-02-25T08:30:51.841Z,103132.95
2019-02-25T08:33:30.924Z,103133.62
2019-02-25T08:36:15.947Z,103132.01
2019-02-25T08:38:52.155Z,103138.15
2019-02-25T08:41:22.067Z,103137.65
2019-02-25T08:44:00.772Z,103140.74
2019-02-25T08:46:34.098Z,103146.34
2019-02-25T08:49:06.829Z,103151.12
2019-02-25T08:51:35.258Z,103139.86
2019-02-25T08:54:03.589Z,103146.44
2019-02-25T08:56:31.931Z,103149.05
2019-02-25T08:59:00.225Z,103148.31
2019-02-25T09:01:28.875Z,103145.34
2019-02-25T09:03:57.361Z,103133.62
2019-02-25T09:06:25.928Z,103146.27
2019-02-25T09:08:54.319Z,103141.47
2019-02-25T09:11:22.627Z,103151.29
2019-02-25T09:13:50.987Z,103148.16
2019-02-25T09:16:19.283Z,103150.23
2019-02-25T09:18:48.294Z,103158.98
2019-02-25T09:21:16.661Z,103160.33
2019-02-25T09:23:44.971Z,103157.70
2019-02-25T09:26:13.269Z,103153.23
2019-02-25T09:28:41.846Z,103151.52
2019-02-25T09:31:10.311Z,103146.68
2019-02-25T09:33:38.598Z,103147.20
2019-02-25T09:36:07.824Z,103155.09
2019-02-25T09:38:36.120Z,103155.37
2019-02-25T09:41:04.446Z,103158.23
2019-02-25T09:43:32.728Z,103156.31
2019-02-25T09:46:01.285Z,103155.27
2019-02-25T09:48:29.573Z,103161.31
2019-02-25T09:50:58.329Z,103147.89
2019-02-25T09:53:26.613Z,103148.84
2019-02-25T09:55:54.922Z,103141.52
2019-02-25T09:58:23.532Z,103139.91
2019-02-25T10:00:52.206Z,103147.33
2019-02-25T10:03:20.498Z,103151.41
2019-02-25T10:05:48.818Z,103151.08
2019-02-25T10:08:17.115Z,103154.14
2019-02-25T10:10:45.730Z,103151.42
2019-02-25T10:13:15.594Z,103144.46
2019-02-25T10:15:44.125Z,103148.94
2019-02-25T10:18:12.529Z,103149.98
2019-02-25T10:20:40.907Z,103148.30
2019-02-25T10:23:09.676Z,103148.45
2019-02-25T10:25:38.086Z,103146.17
2019-02-25T10:28:06.374Z,103145.61
2019-02-25T10:30:34.734Z,103142.94
2019-02-25T10:33:03.040Z,103153.34
2019-02-25T10:35:31.342Z,103147.66
2019-02-25T10:38:01.074Z,103141.80
2019-02-25T10:40:29.696Z,103138.94
2019-02-25T10:42:58.228Z,103145.02
2019-02-25T10:45:26.840Z,103143.37
2019-02-25T10:47:58.408Z,103144.15
2019-02-25T10:50:25.158Z,103136.13
2019-02-25T10:53:03.008Z,103136.23
2019-02-25T10:55:32.581Z,103129.17
2019-02-25T10:58:02.056Z,103126.05
2019-02-25T11:00:31.417Z,103122.30
2019-02-25T11:02:59.993Z,103125.96
2019-02-25T11:05:30.521Z,103130.38
2019-02-25T11:07:59.319Z,103127.25
2019-02-25T11:10:35.270Z,103125.66
2019-02-25T11:13:04.305Z,103129.12
2019-02-25T11:15:34.208Z,103124.68
2019-02-25T11:18:02.535Z,103113.83
2019-02-25T11:20:31.733Z,103119.11
2019-02-25T11:23:01.165Z,103118.52
2019-02-25T11:25:30.192Z,103109.20
2019-02-25T11:27:58.534Z,103106.33
2019-02-25T11:30:26.930Z,103103.66
2019-02-25T11:32:56.270Z,103104.45
2019-02-25T11:35:25.325Z,103102.81
2019-02-25T11:37:56.380Z,103097.45
2019-02-25T11:40:25.899Z,103095.16
2019-02-25T11:42:54.104Z,103093.91
2019-02-25T11:45:22.413Z,103095.23
2019-02-25T11:47:50.701Z,103093.11
2019-02-25T11:50:20.267Z,103089.09
2019-02-25T11:52:48.603Z,103087.95
2019-02-25T11:55:17.152Z,103072.94
2019-02-25T11:57:45.518Z,103066.20
2019-02-25T12:00:23.099Z,103065.16
2019-02-25T12:02:51.519Z,103062.78
2019-02-25T12:05:20.258Z,103061.49
2019-02-25T12:07:48.581Z,103056.53
2019-02-25T12:10:17.811Z,103041.23
2019-02-25T12:12:46.203Z,103039.85
2019-02-25T12:15:19.153Z,103043.32
2019-02-25T12:17:47.410Z,103039.05
2019-02-25T12:20:16.189Z,103043.20
2019-02-25T12:22:44.585Z,103037.05
2019-02-25T12:25:21.507Z,103022.76
2019-02-25T12:27:49.829Z,103013.23
2019-02-25T12:30:22.450Z,103004.23
2019-02-25T12:32:50.776Z,102997.17
2019-02-25T12:35:19.396Z,102985.52
2019-02-25T12:37:47.889Z,102986.14
2019-02-25T12:40:17.122Z,102984.59
2019-02-25T12:42:45.473Z,102987.54
2019-02-25T12:45:14.912Z,102975.66
2019-02-25T12:47:43.215Z,102970.39
2019-02-25T12:50:13.657Z,102969.42
2019-02-25T12:52:42.025Z,102955.34
2019-02-25T12:55:14.402Z,102946.67
2019-02-25T12:57:42.779Z,102937.78
2019-02-25T13:00:16.952Z,102928.17
2019-02-25T13:02:45.241Z,102925.13
2019-02-25T13:05:16.243Z,102920.83
2019-02-25T13:07:44.548Z,102921.91
2019-02-25T13:10:15.454Z,102921.66
2019-02-25T13:12:43.745Z,102914.19
2019-02-25T13:15:17.563Z,102916.71
2019-02-25T13:17:45.853Z,102915.13
2019-02-25T13:20:15.463Z,102906.48
2019-02-25T13:22:43.776Z,102917.66
2019-02-25T13:25:26.530Z,102911.77
2019-02-25T13:27:56.434Z,102911.91
2019-02-25T13:30:24.832Z,102912.53
2019-02-25T13:32:53.454Z,102906.25
2019-02-25T13:35:22.003Z,102903.00
2019-02-25T13:37:50.313Z,102890.97
2019-02-25T13:40:18.954Z,102897.21
2019-02-25T13:42:47.293Z,102883.11
2019-02-25T13:45:17.797Z,102893.11
2019-02-25T13:47:46.118Z,102886.27
2019-02-25T13:50:15.991Z,102887.71
2019-02-25T13:52:48.540Z,102883.25
2019-02-25T13:55:22.214Z,102884.59
2019-02-25T13:57:50.567Z,102888.43
2019-02-25T14:00:20.665Z,102886.72
2019-02-25T14:02:49.671Z,102893.73
2019-02-25T14:05:18.174Z,102889.38
2019-02-25T14:07:46.496Z,102897.68
2019-02-25T14:10:15.850Z,102903.38
2019-02-25T14:12:44.168Z,102905.64
2019-02-25T14:15:25.113Z,102902.75
2019-02-25T14:17:53.587Z,102905.11
2019-02-25T14:20:23.127Z,102907.52
2019-02-25T14:22:51.449Z,102915.19
2019-02-25T14:25:25.671Z,102919.52
2019-02-25T14:27:54.263Z,102909.13
2019-02-25T14:30:23.998Z,102912.61
2019-02-25T14:32:53.394Z,102897.52
2019-02-25T14:35:28.545Z,102899.73
2019-02-25T14:38:02.838Z,102896.84
2019-02-25T14:40:32.039Z,102898.66
2019-02-25T14:42:59.986Z,102905.64
2019-02-25T14:45:31.487Z,102902.97
2019-02-25T14:47:59.883Z,102892.70
2019-02-25T14:50:29.606Z,102893.78
2019-02-25T14:52:57.988Z,102897.87
2019-02-25T14:55:28.325Z,102895.01
2019-02-25T14:57:59.961Z,102897.08
2019-02-25T15:00:29.146Z,102906.38
2019-02-25T15:02:58.084Z,102917.25
2019-02-25T15:05:26.982Z,102909.52
2019-02-25T15:07:55.389Z,102913.50
2019-02-25T15:10:26.548Z,102908.89
2019-02-25T15:12:56.546Z,102907.95
2019-02-25T15:15:24.411Z,102902.89
2019-02-25T15:17:52.893Z,102904.95
2019-02-25T15:20:23.406Z,102906.62
2019-02-25T15:22:52.415Z,102901.91
2019-02-25T15:25:21.211Z,102905.15
2019-02-25T15:27:49.555Z,102903.72
2019-02-25T15:30:30.712Z,102902.40
2019-02-25T15:32:59.620Z,102908.45
2019-02-25T15:35:31.835Z,102913.41
2019-02-25T15:38:00.323Z,102910.86
2019-02-25T15:40:29.038Z,102913.41
2019-02-25T15:43:02.446Z,102910.52
2019-02-25T15:45:35.005Z,102914.54
2019-02-25T15:48:03.499Z,102912.72
2019-02-25T15:50:31.836Z,102916.81
2019-02-25T15:53:03.315Z,102910.91
2019-02-25T15:55:31.522Z,102908.78
2019-02-25T15:57:59.854Z,102908.64
2019-02-25T16:00:30.011Z,102902.15
2019-02-25T16:02:58.720Z,102906.86
2019-02-25T16:05:29.567Z,102915.90
2019-02-25T16:08:00.044Z,102912.30
2019-02-25T16:10:28.820Z,102917.85
2019-02-25T16:12:57.863Z,102919.55
2019-02-25T16:15:27.321Z,102907.72
2019-02-25T16:17:55.655Z,102915.43
2019-02-25T16:20:26.636Z,102922.89
2019-02-25T16:22:56.583Z,102920.59
2019-02-25T16:25:27.544Z,102929.05
2019-02-25T16:27:56.903Z,102932.77
2019-02-25T16:30:26.341Z,102924.20
2019-02-25T16:32:55.589Z,102931.09
2019-02-25T16:35:23.900Z,102932.16
2019-02-25T16:37:53.054Z,102930.72
2019-02-25T16:40:24.412Z,102930.35
2019-02-25T16:42:55.003Z,102940.19
2019-02-25T16:45:32.418Z,102939.00
2019-02-25T16:47:57.100Z,102940.69
2019-02-25T16:50:25.496Z,102935.84
2019-02-25T16:52:53.767Z,102939.54
2019-02-25T16:55:27.765Z,102938.94
2019-02-25T16:57:56.107Z,102939.62
2019-02-25T17:00:29.883Z,102938.75
2019-02-25T17:03:01.387Z,102949.66
2019-02-25T17:05:28.302Z,102949.19
2019-02-25T17:07:56.866Z,102951.96
2019-02-25T17:10:29.140Z,102950.53
2019-02-25T17:12:57.044Z,102947.77
2019-02-25T17:15:26.982Z,102955.72
2019-02-25T17:17:58.330Z,102944.16
2019-02-25T17:20:27.824Z,102941.94
2019-02-25T17:22:55.692Z,102938.20
2019-02-25T17:25:26.898Z,102939.23
2019-02-25T17:27:54.064Z,102941.94
2019-02-25T17:30:24.132Z,102945.02
2019-02-25T17:32:54.880Z,102941.66
2019-02-25T17:35:25.806Z,102944.22
2019-02-25T17:37:55.516Z,102942.09
2019-02-25T17:40:23.907Z,102944.69
2019-02-25T17:42:54.017Z,102940.70
2019-02-25T17:45:25.110Z,102941.64
2019-02-25T17:47:58.275Z,102932.91
2019-02-25T17:50:24.352Z,102941.20
2019-02-25T17:52:52.958Z,102938.87
2019-02-25T17:55:27.261Z,102943.21
2019-02-25T17:57:58.587Z,102941.06
2019-02-25T18:00:44.705Z,102944.45
2019-02-25T18:03:14.942Z,102942.85
2019-02-25T18:05:43.451Z,102943.52
2019-02-25T18:08:13.336Z,102946.27
2019-02-25T18:10:43.126Z,102939.28
2019-02-25T18:13:12.336Z,102934.83
2019-02-25T18:15:40.947Z,102933.62
2019-02-25T18:18:12.011Z,102935.48
2019-02-25T18:20:39.470Z,102938.95
2019-02-25T18:23:08.241Z,102940.92
2019-02-25T18:25:37.673Z,102933.20
2019-02-25T18:28:08.477Z,102936.48
2019-02-25T18:30:37.726Z,102932.05
2019-02-25T18:33:06.392Z,102934.56
2019-02-25T18:35:36.872Z,102935.98
2019-02-25T18:38:07.246Z,102933.65
2019-02-25T18:40:36.480Z,102932.22
2019-02-25T18:43:06.791Z,102936.69
2019-02-25T18:45:37.826Z,102940.31
2019-02-25T18:48:06.481Z,102936.34
2019-02-25T18:50:35.051Z,102939.33
2019-02-25T18:53:03.821Z,102940.91
2019-02-25T18:55:34.186Z,102934.68
2019-02-25T18:58:02.313Z,102926.30
2019-02-25T19:00:37.446Z,102932.83
2019-02-25T19:03:06.781Z,102925.92
2019-02-25T19:05:35.259Z,102926.06
2019-02-25T19:08:12.015Z,102926.33
2019-02-25T19:10:41.284Z,102930.50
2019-02-25T19:13:08.089Z,102935.64
2019-02-25T19:15:37.372Z,102929.47
2019-02-25T19:18:06.936Z,102930.98
2019-02-25T19:20:36.740Z,102929.36
2019-02-25T19:23:09.467Z,102924.73
2019-02-25T19:25:36.809Z,102920.66
2019-02-25T19:28:05.646Z,102921.76
2019-02-25T19:30:34.515Z,102923.14
2019-02-25T19:33:10.959Z,102923.33
2019-02-25T19:35:35.413Z,102926.86
2019-02-25T19:38:05.837Z,102924.86
2019-02-25T19:40:33.955Z,102923.41
2019-02-25T19:43:04.281Z,102923.25
2019-02-25T19:45:33.878Z,102915.79
2019-02-25T19:48:04.747Z,102910.45
2019-02-25T19:50:34.692Z,102915.64
2019-02-25T19:53:05.242Z,102915.58
2019-02-25T19:55:33.966Z,102914.73
2019-02-25T19:58:03.703Z,102915.98
2019-02-25T20:00:33.884Z,102908.88
2019-02-25T20:03:05.754Z,102904.25
2019-02-25T20:05:33.377Z,102901.26
2019-02-25T20:08:01.836Z,102894.70
2019-02-25T20:10:30.857Z,102891.76
2019-02-25T20:12:59.351Z,102897.16
2019-02-25T20:15:27.653Z,102890.00
2019-02-25T20:17:55.945Z,102888.53
2019-02-25T20:20:25.964Z,102889.14
2019-02-25T20:22:54.278Z,102886.05
2019-02-25T20:25:25.849Z,102876.41
2019-02-25T20:27:54.976Z,102881.66
2019-02-25T20:30:24.118Z,102881.99
2019-02-25T20:32:53.819Z,102876.95
2019-02-25T20:35:24.360Z,102878.66
2019-02-25T20:37:53.756Z,102880.58
2019-02-25T20:40:24.145Z,102876.33
2019-02-25T20:42:53.564Z,102872.55
2019-02-25T20:45:30.037Z,102878.26
2019-02-25T20:47:59.644Z,102873.25
2019-02-25T20:50:28.015Z,102874.34
2019-02-25T20:52:59.140Z,102869.44
2019-02-25T20:57:19.826Z,102869.30
2019-02-25T20:59:48.815Z,102867.23
2019-02-25T21:02:18.799Z,102871.39
2019-02-25T21:04:50.122Z,102866.30
2019-02-25T21:07:18.176Z,102862.30
2019-02-25T21:09:46.498Z,102867.17
2019-02-25T21:12:15.790Z,102874.24
2019-02-25T21:14:45.109Z,102867.46
2019-02-25T21:17:13.443Z,102858.82
2019-02-25T21:19:43.838Z,102852.33
2019-02-25T21:22:11.777Z,102858.05
2019-02-25T21:24:40.082Z,102856.36
2019-02-25T21:27:10.441Z,102863.90
2019-02-25T21:29:41.078Z,102868.20
2019-02-25T21:32:12.764Z,102869.13
2019-02-25T21:34:38.955Z,102864.73
2019-02-25T21:37:07.247Z,102861.89
2019-02-25T21:39:36.601Z,102851.23
2019-02-25T21:42:06.420Z,102852.58
2019-02-25T21:44:36.424Z,102846.40
2019-02-25T21:47:06.330Z,102857.00
2019-02-25T21:49:36.597Z,102853.08
2019-02-25T21:52:06.255Z,102867.34
2019-02-25T21:54:35.882Z,102864.96
2019-02-25T21:57:05.398Z,102855.47
2019-02-25T21:59:36.507Z,102862.76
2019-02-25T22:02:04.536Z,102861.48
2019-02-25T22:04:32.846Z,102861.83
2019-02-25T22:07:02.541Z,102863.66
2019-02-25T22:09:39.096Z,102863.14
2019-02-25T22:12:01.090Z,102873.48
2019-02-25T22:14:29.415Z,102868.84
2019-02-25T22:16:58.852Z,102871.21
2019-02-25T22:19:27.741Z,102870.17
2019-02-25T22:21:58.056Z,102874.36
2019-02-25T22:24:29.100Z,102871.08
2019-02-25T22:26:57.947Z,102877.23
2019-02-25T22:29:26.491Z,102873.58
2019-02-25T22:31:54.802Z,102875.48
2019-02-25T22:34:25.266Z,102871.97
2019-02-25T22:36:55.823Z,102871.81
2019-02-25T22:39:25.135Z,102872.73
2019-02-25T22:41:54.108Z,102865.58
2019-02-25T22:44:23.092Z,102862.25
2019-02-25T22:46:52.722Z,102861.02
2019-02-25T22:49:22.096Z,102849.38
2019-02-25T22:51:51.919Z,102853.11
2019-02-25T22:54:21.585Z,102850.11
2019-02-25T22:56:49.941Z,102850.16
2019-02-25T22:59:20.754Z,102852.90
2019-02-25T23:01:52.071Z,102853.77
2019-02-25T23:04:19.686Z,102851.29
2019-02-25T23:06:49.696Z,102847.75
2019-02-25T23:09:21.236Z,102848.09
2019-02-25T23:11:50.563Z,102847.03
2019-02-25T23:14:19.120Z,102858.41
2019-02-25T23:16:47.932Z,102865.00
2019-02-25T23:19:18.015Z,102856.05
2019-02-25T23:21:46.315Z,102858.72
2019-02-25T23:24:14.624Z,102853.70
2019-02-25T23:26:42.926Z,102852.64
2019-02-25T23:29:11.529Z,102854.62
2019-02-25T23:31:39.842Z,102855.12
2019-02-25T23:34:10.294Z,102853.56
2019-02-25T23:36:40.896Z,102862.11
2019-02-25T23:39:08.537Z,102862.36
2019-02-25T23:41:38.980Z,102863.16
2019-02-25T23:44:08.664Z,102863.92
2019-02-25T23:46:37.866Z,102852.37
2019-02-25T23:49:06.912Z,102846.93
2019-02-25T23:51:37.184Z,102851.77
2019-02-25T23:54:05.243Z,102845.74
2019-02-25T23:56:33.855Z,102851.05
2019-02-25T23:59:02.142Z,102846.28
